Time;durP1;ratioP1;P1;durP2;ratioP2;P2;SDS_P1;SDS_P2;PMS_P1;PMS_P2;Temp;Humidity;BMP_temperature;BMP_pressure;BME280_temperature;BME280_humidity;BME280_pressure;Samples;Min_cycle;Max_cycle;Signal;HPM_P1;HPM_P2
2022/04/09 00:03:10;;;;;;;7.43;3.17;;;3.80;99.90;;;;;;8393620;28;20204;-68
2022/04/09 00:07:11;;;;;;;4.07;3.53;;;3.80;99.90;;;;;;8365408;28;20202;-67
2022/04/09 00:11:13;;;;;;;5.50;3.10;;;3.80;99.90;;;;;;8362809;28;20217;-67
2022/04/09 00:15:16;;;;;;;5.67;3.53;;;3.80;99.90;;;;;;8389502;28;20228;-71
2022/04/09 00:19:17;;;;;;;5.33;3.60;;;3.80;99.90;;;;;;8393470;28;20263;-68
2022/04/09 00:23:18;;;;;;;6.00;3.80;;;3.80;99.90;;;;;;8394789;28;20197;-68
2022/04/09 00:27:20;;;;;;;5.83;3.00;;;3.90;99.90;;;;;;8397138;28;20227;-67
2022/04/09 00:31:21;;;;;;;3.90;2.93;;;3.90;99.90;;;;;;8395436;28;20219;-68
2022/04/09 00:35:22;;;;;;;4.10;2.90;;;3.90;99.90;;;;;;8396229;28;20298;-68
2022/04/09 00:39:24;;;;;;;4.10;2.63;;;3.90;99.90;;;;;;8390215;28;20197;-68
2022/04/09 00:43:25;;;;;;;4.13;2.60;;;3.90;99.90;;;;;;8391239;28;20200;-68
2022/04/09 00:47:26;;;;;;;3.33;2.27;;;4.00;99.90;;;;;;8387414;28;20205;-68
2022/04/09 00:51:27;;;;;;;4.80;2.57;;;3.90;99.90;;;;;;8389084;28;20294;-68
2022/04/09 00:59:50;;;;;;;4.00;2.57;;;3.90;99.90;;;;;;8387931;28;20251;-68
2022/04/09 01:03:52;;;;;;;5.40;2.57;;;3.90;99.90;;;;;;8395971;28;20293;-69
2022/04/09 01:07:53;;;;;;;3.77;2.47;;;4.00;99.90;;;;;;8389050;28;20208;-68
2022/04/09 01:11:56;;;;;;;5.77;2.30;;;4.00;99.90;;;;;;8393357;28;20245;-68
2022/04/09 01:15:57;;;;;;;3.40;2.43;;;4.00;99.90;;;;;;8390492;28;20220;-67
2022/04/09 01:19:58;;;;;;;4.17;2.60;;;4.00;99.90;;;;;;8393557;28;20201;-69
2022/04/09 01:24:01;;;;;;;4.17;2.60;;;4.00;99.90;;;;;;8380512;28;20197;-63
2022/04/09 01:28:01;;;;;;;4.30;2.73;;;3.90;99.90;;;;;;8407195;28;20205;-64
2022/04/09 01:32:02;;;;;;;3.37;2.53;;;3.80;99.90;;;;;;8395724;28;20320;-66
2022/04/09 01:36:04;;;;;;;4.43;3.00;;;3.80;99.90;;;;;;8397767;28;20197;-67
2022/04/09 01:40:05;;;;;;;3.30;2.43;;;3.70;99.90;;;;;;8396494;28;20208;-66
2022/04/09 01:44:06;;;;;;;5.90;2.93;;;3.70;99.90;;;;;;8424570;28;20201;-65
2022/04/09 01:48:07;;;;;;;6.07;3.43;;;3.70;99.90;;;;;;8431441;28;20254;-68
2022/04/09 01:52:08;;;;;;;4.43;3.27;;;3.70;99.90;;;;;;8386573;28;20224;-66
2022/04/09 01:56:09;;;;;;;7.97;3.73;;;3.70;99.90;;;;;;8398600;28;20209;-66
2022/04/09 02:00:14;;;;;;;4.80;3.33;;;3.70;99.90;;;;;;8399227;28;20291;-64
2022/04/09 02:04:15;;;;;;;4.87;3.30;;;3.60;99.90;;;;;;8408732;28;20200;-67
2022/04/09 02:08:16;;;;;;;4.43;3.33;;;3.60;99.90;;;;;;8433760;28;20244;-67
2022/04/09 02:12:17;;;;;;;4.60;2.90;;;3.60;99.90;;;;;;8424437;28;20244;-67
2022/04/09 02:16:18;;;;;;;4.60;3.57;;;3.50;99.90;;;;;;8399180;28;20263;-68
2022/04/09 02:20:19;;;;;;;8.03;3.40;;;3.50;99.90;;;;;;8430179;28;20229;-66
2022/04/09 02:24:20;;;;;;;3.73;3.23;;;3.50;99.90;;;;;;8397617;28;20201;-65
2022/04/09 02:28:21;;;;;;;4.50;3.20;;;3.50;99.90;;;;;;8400344;28;20201;-70
2022/04/09 02:32:22;;;;;;;4.53;3.00;;;3.40;99.90;;;;;;8398406;28;20245;-66
2022/04/09 02:36:24;;;;;;;3.80;3.07;;;3.40;99.90;;;;;;8396526;28;20235;-68
2022/04/09 02:40:24;;;;;;;5.97;3.13;;;3.40;99.90;;;;;;8397840;28;20212;-67
2022/04/09 02:44:25;;;;;;;4.10;3.03;;;3.30;99.90;;;;;;8400133;28;20196;-68
2022/04/09 02:48:26;;;;;;;4.80;3.57;;;3.30;99.90;;;;;;8397369;28;20196;-67
2022/04/09 02:52:36;;;;;;;5.00;3.17;;;3.20;99.90;;;;;;8397338;28;20221;-67
2022/04/09 02:56:37;;;;;;;4.57;3.33;;;3.20;99.90;;;;;;8396178;28;20213;-66
2022/04/09 03:00:39;;;;;;;6.17;3.67;;;3.20;99.90;;;;;;8412240;28;20244;-69
2022/04/09 03:04:40;;;;;;;4.10;3.60;;;3.20;99.90;;;;;;8386524;28;20197;-68
2022/04/09 03:08:41;;;;;;;8.10;4.37;;;3.20;99.90;;;;;;8383643;28;20236;-66
2022/04/09 03:12:43;;;;;;;4.33;3.80;;;3.20;99.90;;;;;;8392685;28;20213;-68
2022/04/09 03:16:44;;;;;;;5.27;3.87;;;3.20;99.90;;;;;;8392837;28;20219;-69
2022/04/09 03:20:45;;;;;;;4.87;3.70;;;3.20;99.90;;;;;;8391602;28;20314;-68
2022/04/09 03:24:46;;;;;;;5.73;3.80;;;3.20;99.90;;;;;;8393456;28;20214;-68
2022/04/09 03:28:47;;;;;;;5.43;4.03;;;3.30;99.90;;;;;;8391981;28;20221;-68
2022/04/09 03:32:48;;;;;;;5.97;4.03;;;3.30;99.90;;;;;;8392290;28;20247;-69
2022/04/09 03:36:49;;;;;;;6.83;3.57;;;3.40;99.90;;;;;;8394761;28;20208;-68
2022/04/09 03:40:49;;;;;;;5.53;3.87;;;3.40;99.90;;;;;;8411781;28;20204;-68
2022/04/09 03:44:50;;;;;;;3.80;3.40;;;3.50;99.90;;;;;;8410365;28;20201;-65
2022/04/09 03:48:51;;;;;;;6.50;4.80;;;3.50;99.90;;;;;;8395172;28;20283;-65
2022/04/09 03:52:52;;;;;;;5.97;3.77;;;3.50;99.90;;;;;;8385737;28;20222;-68
2022/04/09 03:56:53;;;;;;;7.10;3.70;;;3.50;99.90;;;;;;8393911;28;20193;-68
2022/04/09 04:00:54;;;;;;;4.83;3.60;;;3.50;99.90;;;;;;8377365;28;20217;-68
2022/04/09 04:04:55;;;;;;;4.20;3.43;;;3.40;99.90;;;;;;8394137;28;20209;-68
2022/04/09 04:08:56;;;;;;;5.90;3.67;;;3.40;99.90;;;;;;8394305;28;20197;-68
2022/04/09 04:12:57;;;;;;;7.40;3.83;;;3.40;99.90;;;;;;8375976;28;20228;-68
2022/04/09 04:16:57;;;;;;;5.80;3.77;;;3.30;99.90;;;;;;8393819;28;20319;-68
2022/04/09 04:20:58;;;;;;;5.90;3.97;;;3.30;99.90;;;;;;8394191;28;20316;-68
2022/04/09 04:24:59;;;;;;;7.27;4.27;;;3.30;99.90;;;;;;8395598;28;20290;-69
2022/04/09 04:29:00;;;;;;;4.37;3.47;;;3.30;99.90;;;;;;8391958;28;20268;-68
2022/04/09 04:33:01;;;;;;;5.17;4.23;;;3.30;99.90;;;;;;8390770;28;20221;-67
2022/04/09 04:37:02;;;;;;;4.23;3.80;;;3.20;99.90;;;;;;8389220;28;20197;-68
2022/04/09 04:41:04;;;;;;;6.03;4.17;;;3.20;99.90;;;;;;8389940;28;20206;-69
2022/04/09 04:45:06;;;;;;;10.30;4.40;;;3.10;99.90;;;;;;8388647;28;20201;-69
2022/04/09 04:49:07;;;;;;;5.13;4.00;;;3.20;99.90;;;;;;8391161;28;20286;-68
2022/04/09 04:53:08;;;;;;;8.00;4.10;;;3.20;99.90;;;;;;8374924;28;20213;-68
2022/04/09 04:57:09;;;;;;;7.47;4.17;;;3.20;99.90;;;;;;8383553;28;20295;-72
2022/04/09 05:01:10;;;;;;;7.13;4.67;;;3.30;99.90;;;;;;8357944;28;20240;-66
2022/04/09 05:05:11;;;;;;;6.53;4.30;;;3.30;99.90;;;;;;8382612;28;20222;-67
2022/04/09 05:09:13;;;;;;;7.17;4.47;;;3.40;99.90;;;;;;8385779;28;20207;-68
2022/04/09 05:13:14;;;;;;;5.00;3.93;;;3.40;99.90;;;;;;8384517;28;20208;-67
2022/04/09 05:17:14;;;;;;;7.13;3.57;;;3.50;99.90;;;;;;8359285;28;20248;-66
2022/04/09 05:21:15;;;;;;;5.90;4.07;;;3.40;99.90;;;;;;8376153;28;20228;-65
2022/04/09 05:25:21;;;;;;;5.30;3.77;;;3.50;99.90;;;;;;8386972;28;20211;-68
2022/04/09 05:29:22;;;;;;;7.80;3.70;;;3.50;99.90;;;;;;8377588;28;20211;-67
2022/04/09 05:33:23;;;;;;;4.30;3.30;;;3.60;99.90;;;;;;8387628;28;20229;-67
2022/04/09 05:37:26;;;;;;;3.83;3.07;;;3.60;99.90;;;;;;8382856;28;20205;-66
2022/04/09 05:41:27;;;;;;;6.33;2.77;;;3.70;99.90;;;;;;8388153;28;20204;-66
2022/04/09 05:45:28;;;;;;;11.10;3.40;;;3.70;99.90;;;;;;8403473;28;20213;-66
2022/04/09 05:49:29;;;;;;;5.87;2.97;;;3.70;99.90;;;;;;8391481;28;20205;-62
2022/04/09 05:53:30;;;;;;;6.33;3.23;;;3.70;99.90;;;;;;8388729;28;20235;-65
2022/04/09 05:57:32;;;;;;;8.90;3.57;;;3.80;99.90;;;;;;8392888;28;20209;-64
2022/04/09 06:01:34;;;;;;;5.27;3.33;;;3.80;99.90;;;;;;8390942;28;20213;-65
2022/04/09 06:05:35;;;;;;;5.67;2.93;;;3.90;99.90;;;;;;8391937;28;20216;-64
2022/04/09 06:09:36;;;;;;;4.33;3.23;;;4.00;89.30;;;;;;8395432;28;20259;-65
2022/04/09 06:13:37;;;;;;;3.53;2.67;;;4.20;99.90;;;;;;8384708;28;20279;-65
2022/04/09 06:17:39;;;;;;;3.53;2.70;;;4.50;99.90;;;;;;8407142;28;20209;-66
2022/04/09 06:21:40;;;;;;;3.90;2.67;;;4.80;1.00;;;;;;8409566;28;20230;-64
2022/04/09 06:25:41;;;;;;;4.10;2.90;;;5.00;1.00;;;;;;8375597;28;20205;-65
2022/04/09 06:29:42;;;;;;;5.70;2.90;;;5.20;99.90;;;;;;8395171;28;20207;-63
2022/04/09 06:33:43;;;;;;;7.17;2.90;;;5.40;99.90;;;;;;8395775;28;20243;-63
2022/04/09 06:37:45;;;;;;;5.60;3.20;;;5.30;95.50;;;;;;8396043;28;20293;-66
2022/04/09 06:41:48;;;;;;;5.90;3.23;;;5.20;99.90;;;;;;8394120;28;20248;-64
2022/04/09 06:45:49;;;;;;;5.67;3.00;;;5.10;99.90;;;;;;8390174;28;20216;-66
2022/04/09 06:49:50;;;;;;;5.20;4.10;;;5.10;99.90;;;;;;8390556;28;20209;-63
2022/04/09 06:53:50;;;;;;;4.80;3.60;;;5.00;2.90;;;;;;8377145;28;20326;-64
2022/04/09 06:58:01;;;;;;;7.33;4.23;;;5.00;1.00;;;;;;8391514;28;20211;-64
2022/04/09 07:02:04;;;;;;;4.83;3.00;;;5.10;99.90;;;;;;8406005;28;20218;-63
2022/04/09 07:06:04;;;;;;;5.47;3.10;;;4.90;1.00;;;;;;8393092;28;20200;-65
2022/04/09 07:10:10;;;;;;;4.67;3.40;;;5.10;99.90;;;;;;8388535;28;20217;-64
2022/04/09 07:14:11;;;;;;;5.77;3.00;;;5.00;1.00;;;;;;8389489;28;20283;-64
2022/04/09 07:18:11;;;;;;;5.00;2.87;;;4.80;99.90;;;;;;8407300;28;20576;-63
2022/04/09 07:22:13;;;;;;;3.07;2.40;;;4.80;1.00;;;;;;8392189;28;20216;-63
2022/04/09 07:26:18;;;;;;;5.83;2.70;;;4.90;99.90;;;;;;8391534;28;20205;-64
2022/04/09 07:30:20;;;;;;;3.17;2.50;;;5.10;99.90;;;;;;8382811;28;20229;-64
2022/04/09 07:34:24;;;;;;;7.60;3.27;;;5.30;99.90;;;;;;8390843;28;20221;-63
2022/04/09 07:38:25;;;;;;;3.87;2.23;;;5.10;99.90;;;;;;8390175;28;20190;-63
2022/04/09 07:42:26;;;;;;;2.90;2.03;;;5.20;99.90;;;;;;8388670;28;20209;-63
2022/04/09 07:46:27;;;;;;;3.17;2.00;;;5.10;99.90;;;;;;8390655;28;20216;-65
2022/04/09 07:50:28;;;;;;;5.57;2.03;;;5.50;99.90;;;;;;8389623;28;20250;-63
2022/04/09 07:54:30;;;;;;;3.23;1.73;;;5.80;99.90;;;;;;8375632;28;20263;-65
2022/04/09 07:58:31;;;;;;;3.70;2.10;;;5.80;1.00;;;;;;8389802;28;20285;-65
2022/04/09 08:02:33;;;;;;;3.23;2.00;;;5.60;99.90;;;;;;8392640;28;20225;-65
2022/04/09 08:06:33;;;;;;;3.80;1.50;;;5.80;6.30;;;;;;8389815;28;20201;-63
2022/04/09 08:10:35;;;;;;;5.00;1.40;;;5.90;1.00;;;;;;8380887;28;20212;-65
2022/04/09 08:14:36;;;;;;;3.53;1.27;;;6.00;99.90;;;;;;8382178;28;20229;-65
2022/04/09 08:18:39;;;;;;;4.20;1.20;;;6.30;99.90;;;;;;8389656;28;20201;-65
2022/04/09 08:22:41;;;;;;;2.87;0.90;;;6.40;99.90;;;;;;8406257;28;20228;-67
2022/04/09 08:26:42;;;;;;;2.07;1.07;;;6.60;1.00;;;;;;8372675;28;20220;-63
2022/04/09 08:30:43;;;;;;;3.53;1.00;;;6.60;1.00;;;;;;8371128;28;20206;-68
2022/04/09 08:34:44;;;;;;;3.33;1.30;;;6.60;90.40;;;;;;8383806;28;20310;-65
2022/04/09 08:38:45;;;;;;;3.70;1.20;;;6.30;99.90;;;;;;8420410;28;20203;-64
2022/04/09 08:42:49;;;;;;;3.80;1.40;;;6.20;20.10;;;;;;8389390;28;20216;-65
2022/04/09 08:46:51;;;;;;;3.00;1.30;;;6.20;99.90;;;;;;8389046;28;20204;-63
2022/04/09 08:50:52;;;;;;;3.80;1.30;;;6.10;99.90;;;;;;8390821;28;20209;-65
2022/04/09 08:54:53;;;;;;;2.70;0.93;;;6.40;38.50;;;;;;8384684;28;20227;-63
2022/04/09 08:58:54;;;;;;;3.20;1.33;;;6.50;99.90;;;;;;8372169;28;20220;-64
2022/04/09 09:03:00;;;;;;;4.93;1.20;;;6.70;1.00;;;;;;8386509;28;20219;-65
2022/04/09 09:07:43;;;;;;;3.70;1.07;;;7.10;1.00;;;;;;8389958;28;20201;-65
2022/04/09 09:11:49;;;;;;;3.97;1.60;;;7.20;1.00;;;;;;8341567;28;20290;-66
2022/04/09 09:15:53;;;;;;;3.30;1.13;;;6.80;99.90;;;;;;8390866;28;20197;-65
2022/04/09 09:19:54;;;;;;;3.03;1.10;;;6.70;1.00;;;;;;8389942;28;20205;-64
2022/04/09 09:24:09;;;;;;;2.83;1.57;;;6.60;1.00;;;;;;8393357;28;20215;-66
2022/04/09 09:28:12;;;;;;;2.67;0.93;;;6.40;1.00;;;;;;8390918;28;20240;-65
2022/04/09 09:32:25;;;;;;;2.67;0.67;;;6.60;1.00;;;;;;8364143;28;20236;-63
2022/04/09 09:36:33;;;;;;;4.03;1.37;;;6.70;1.00;;;;;;8393371;28;20224;-66
2022/04/09 09:40:37;;;;;;;2.43;0.80;;;6.80;1.00;;;;;;8396116;28;20239;-64
2022/04/09 09:44:43;;;;;;;4.60;0.80;;;7.10;18.90;;;;;;8394749;28;20224;-64
2022/04/09 09:48:50;;;;;;;4.40;1.33;;;7.40;99.90;;;;;;8390125;28;20201;-65
2022/04/09 09:53:03;;;;;;;1.40;0.70;;;7.90;99.90;;;;;;8392288;28;20221;-63
2022/04/09 09:57:20;;;;;;;2.40;1.27;;;7.80;99.90;;;;;;8392511;28;20270;-64
2022/04/09 10:01:21;;;;;;;1.60;0.80;;;7.60;99.90;;;;;;8393686;28;20254;-67
2022/04/09 10:05:23;;;;;;;4.73;1.20;;;7.70;99.90;;;;;;8374955;28;20263;-63
2022/04/09 10:09:26;;;;;;;1.43;0.77;;;7.90;99.90;;;;;;8358356;28;20216;-64
2022/04/09 10:13:28;;;;;;;5.17;0.80;;;8.30;1.00;;;;;;8372688;28;20315;-65
2022/04/09 10:17:29;;;;;;;2.73;0.67;;;9.00;99.90;;;;;;8389093;28;20201;-66
2022/04/09 10:21:40;;;;;;;2.80;0.90;;;8.90;99.90;;;;;;8393643;28;20209;-65
2022/04/09 10:25:43;;;;;;;0.83;0.83;;;9.00;99.90;;;;;;8383493;28;20201;-66
2022/04/09 10:29:48;;;;;;;1.67;1.10;;;8.20;99.90;;;;;;8384351;28;20201;-66
2022/04/09 10:33:55;;;;;;;3.07;0.90;;;7.60;99.90;;;;;;8391468;28;20224;-65
2022/04/09 10:38:13;;;;;;;2.87;1.17;;;7.20;99.90;;;;;;8376389;28;20518;-64
2022/04/09 10:42:48;;;;;;;5.53;1.30;;;7.10;1.00;;;;;;8393687;28;20197;-67
2022/04/09 10:46:51;;;;;;;3.63;1.30;;;7.00;1.00;;;;;;8384048;28;20217;-63
2022/04/09 10:50:54;;;;;;;3.63;1.23;;;6.10;99.90;;;;;;8384042;28;20297;-67
2022/04/09 10:55:10;;;;;;;2.60;1.40;;;5.50;99.90;;;;;;8385165;28;20238;-66
2022/04/09 10:59:12;;;;;;;2.90;1.60;;;5.60;1.00;;;;;;8372631;28;20256;-67
2022/04/09 11:03:30;;;;;;;1.37;1.10;;;6.20;99.90;;;;;;8384927;28;20201;-69
2022/04/09 11:07:32;;;;;;;2.17;0.97;;;6.70;99.90;;;;;;8366622;28;20227;-68
2022/04/09 11:11:33;;;;;;;2.90;1.10;;;7.20;1.00;;;;;;8385625;28;20197;-67
2022/04/09 11:15:34;;;;;;;2.93;1.20;;;7.80;1.00;;;;;;8386641;28;20201;-63
2022/04/09 11:19:34;;;;;;;3.20;1.00;;;8.30;1.00;;;;;;8386316;28;20208;-67
2022/04/09 11:23:35;;;;;;;3.73;1.03;;;9.00;99.90;;;;;;8379588;28;20217;-66
2022/04/09 11:27:36;;;;;;;2.90;1.00;;;9.80;1.00;;;;;;8376508;28;20216;-65
2022/04/09 11:31:47;;;;;;;2.20;1.10;;;9.60;99.90;;;;;;8386072;28;20231;-65
2022/04/09 11:35:48;;;;;;;2.43;0.90;;;9.30;1.00;;;;;;8401382;28;20654;-64
2022/04/09 11:39:50;;;;;;;2.30;0.97;;;9.40;1.00;;;;;;8370155;28;20204;-66
2022/04/09 11:43:51;;;;;;;3.47;0.80;;;8.90;1.00;;;;;;8384385;28;20225;-63
2022/04/09 11:47:58;;;;;;;1.00;0.90;;;9.00;1.00;;;;;;8385450;28;20300;-67
2022/04/09 11:51:59;;;;;;;2.10;0.70;;;9.20;1.00;;;;;;8387299;28;20261;-64
2022/04/09 11:56:03;;;;;;;1.03;0.60;;;9.10;1.00;;;;;;8379488;28;20224;-66
2022/04/09 12:00:06;;;;;;;3.00;0.77;;;9.00;99.90;;;;;;8399148;28;20216;-63
2022/04/09 12:04:07;;;;;;;0.83;0.60;;;9.10;99.90;;;;;;8386775;28;20216;-65
2022/04/09 12:08:13;;;;;;;3.20;1.50;;;9.60;99.90;;;;;;8356580;28;20213;-65
2022/04/09 12:12:17;;;;;;;1.87;0.83;;;10.40;99.90;;;;;;8392746;28;20224;-65
2022/04/09 12:16:19;;;;;;;3.10;1.20;;;9.90;99.90;;;;;;8386192;28;20273;-66
2022/04/09 12:20:32;;;;;;;3.43;1.40;;;8.70;1.00;;;;;;8385579;28;20204;-66
2022/04/09 12:24:52;;;;;;;4.10;1.50;;;6.50;64.70;;;;;;8359589;28;20209;-68
2022/04/09 12:29:12;;;;;;;2.27;1.83;;;5.90;1.00;;;;;;8386383;28;20220;-67
2022/04/09 12:33:14;;;;;;;2.70;1.87;;;5.80;1.00;;;;;;8384362;28;20233;-68
2022/04/09 12:37:15;;;;;;;2.80;1.83;;;6.20;1.00;;;;;;8365928;28;20303;-67
2022/04/09 12:41:16;;;;;;;3.60;1.47;;;6.80;61.60;;;;;;8383398;28;20192;-68
2022/04/09 12:45:21;;;;;;;1.97;1.40;;;7.20;99.90;;;;;;8380308;28;20208;-68
2022/04/09 12:49:40;;;;;;;4.37;1.30;;;7.70;1.00;;;;;;8377632;28;20208;-64
2022/04/09 12:53:42;;;;;;;1.93;1.73;;;8.40;1.00;;;;;;8380836;28;20225;-67
2022/04/09 12:57:43;;;;;;;6.83;1.87;;;8.80;1.00;;;;;;8369541;28;20536;-65
2022/04/09 13:01:45;;;;;;;4.10;1.97;;;8.70;1.00;;;;;;8381682;28;20282;-64
2022/04/09 13:05:46;;;;;;;4.97;2.03;;;8.60;1.00;;;;;;8382988;28;20273;-67
2022/04/09 13:09:46;;;;;;;2.40;1.23;;;8.70;1.00;;;;;;8381501;28;20197;-68
2022/04/09 13:13:47;;;;;;;2.33;1.23;;;9.20;99.90;;;;;;8381000;28;20227;-66
2022/04/09 13:17:48;;;;;;;1.63;0.80;;;9.20;99.90;;;;;;8397420;28;20304;-66
2022/04/09 13:21:49;;;;;;;1.33;1.07;;;9.60;99.90;;;;;;8402250;28;20207;-63
2022/04/09 13:25:52;;;;;;;1.80;1.00;;;9.90;99.90;;;;;;8382394;28;20572;-64
2022/04/09 13:29:53;;;;;;;1.27;0.93;;;10.20;99.90;;;;;;8383181;28;20197;-62
2022/04/09 13:33:54;;;;;;;4.20;1.20;;;10.10;99.90;;;;;;8382903;28;20243;-64
2022/04/09 13:37:55;;;;;;;2.00;1.10;;;10.40;99.90;;;;;;8379649;28;20210;-64
2022/04/09 13:41:57;;;;;;;5.03;1.77;;;10.30;99.90;;;;;;8383630;28;20201;-67
2022/04/09 13:45:58;;;;;;;4.43;1.90;;;10.50;99.90;;;;;;8383906;28;20207;-63
2022/04/09 13:49:59;;;;;;;3.97;1.53;;;10.60;99.90;;;;;;8384464;28;20217;-67
2022/04/09 13:54:00;;;;;;;2.80;1.37;;;10.40;99.90;;;;;;8383849;28;20233;-67
2022/04/09 13:58:01;;;;;;;5.03;1.43;;;10.10;99.90;;;;;;8384735;28;20259;-67
2022/04/09 14:02:04;;;;;;;1.60;1.10;;;10.10;99.90;;;;;;8386179;28;20224;-68
2022/04/09 14:06:05;;;;;;;2.93;1.20;;;9.90;99.90;;;;;;8384338;28;20208;-66
2022/04/09 14:10:06;;;;;;;1.83;1.10;;;9.50;99.90;;;;;;8387609;28;20208;-64
2022/04/09 14:14:08;;;;;;;1.43;0.97;;;9.50;99.90;;;;;;8389229;28;20343;-65
2022/04/09 14:18:09;;;;;;;1.33;0.87;;;9.80;92.10;;;;;;8389091;28;20203;-66
2022/04/09 14:22:10;;;;;;;2.10;0.80;;;10.00;56.20;;;;;;8407239;28;20243;-67
2022/04/09 14:26:11;;;;;;;5.53;2.50;;;10.00;21.30;;;;;;8388953;28;20204;-65
2022/04/09 14:30:12;;;;;;;3.00;1.30;;;10.20;50.20;;;;;;8389398;28;20205;-67
2022/04/09 14:34:13;;;;;;;4.63;1.10;;;10.30;17.40;;;;;;8387793;28;20216;-65
2022/04/09 14:38:14;;;;;;;1.57;0.87;;;10.10;10.80;;;;;;8380177;28;20251;-64
2022/04/09 14:42:15;;;;;;;1.87;0.87;;;9.90;1.00;;;;;;8388895;28;20236;-64
2022/04/09 14:46:16;;;;;;;3.27;1.47;;;10.20;1.00;;;;;;8386181;28;20264;-64
2022/04/09 14:50:17;;;;;;;3.30;1.27;;;10.40;1.00;;;;;;8387714;28;20208;-64
2022/04/09 14:54:18;;;;;;;1.20;0.90;;;10.60;1.00;;;;;;8388042;28;20640;-66
2022/04/09 14:58:20;;;;;;;3.07;0.90;;;10.30;1.00;;;;;;8384981;28;20220;-66
2022/04/09 15:02:21;;;;;;;1.33;0.90;;;10.30;14.10;;;;;;8402988;28;20255;-64
2022/04/09 15:06:22;;;;;;;3.63;1.43;;;10.60;1.00;;;;;;8387689;28;20326;-64
2022/04/09 15:10:23;;;;;;;6.37;2.53;;;10.50;2.60;;;;;;8391252;28;20205;-67
2022/04/09 15:14:24;;;;;;;4.43;1.67;;;10.10;9.90;;;;;;8389349;28;20312;-66
2022/04/09 15:18:25;;;;;;;5.27;2.47;;;10.10;13.80;;;;;;8387092;28;20212;-67
2022/04/09 15:22:26;;;;;;;4.93;1.53;;;10.20;8.50;;;;;;8384673;28;20255;-65
2022/04/09 15:26:27;;;;;;;3.63;1.80;;;10.10;1.00;;;;;;8386424;28;20209;-66
2022/04/09 15:30:28;;;;;;;1.90;1.00;;;10.10;1.00;;;;;;8387050;28;20292;-67
2022/04/09 15:34:28;;;;;;;1.57;1.03;;;10.20;21.50;;;;;;8382950;28;20271;-66
2022/04/09 15:38:30;;;;;;;24.53;12.33;;;10.40;19.30;;;;;;8379758;28;20320;-63
2022/04/09 15:42:32;;;;;;;3.13;1.27;;;10.60;13.30;;;;;;8379694;28;20206;-64
2022/04/09 15:46:34;;;;;;;2.53;1.00;;;10.70;1.00;;;;;;8377553;28;20205;-64
2022/04/09 15:50:34;;;;;;;9.53;2.37;;;10.50;1.00;;;;;;8381720;28;20248;-64
2022/04/09 15:54:42;;;;;;;2.97;0.93;;;10.40;1.00;;;;;;8377292;28;20236;-65
2022/04/09 15:58:43;;;;;;;8.47;4.57;;;10.10;1.00;;;;;;8370653;28;20208;-65
2022/04/09 16:02:44;;;;;;;4.07;0.97;;;9.90;1.00;;;;;;8383258;28;20290;-66
2022/04/09 16:06:45;;;;;;;3.10;0.90;;;9.40;11.20;;;;;;8384810;28;20225;-66
2022/04/09 16:10:46;;;;;;;4.10;1.40;;;9.20;48.30;;;;;;8386029;28;20407;-67
2022/04/09 16:14:47;;;;;;;3.13;0.90;;;9.00;94.80;;;;;;8383621;28;20250;-66
2022/04/09 16:18:48;;;;;;;1.93;0.67;;;8.90;99.90;;;;;;8386894;28;20514;-64
2022/04/09 16:22:50;;;;;;;3.13;1.17;;;8.70;99.90;;;;;;8384171;28;20212;-70
2022/04/09 16:26:52;;;;;;;2.27;0.90;;;8.30;99.90;;;;;;8382966;28;20251;-69
2022/04/09 16:30:52;;;;;;;0.80;0.60;;;8.00;99.90;;;;;;8378862;28;20219;-69
2022/04/09 16:34:53;;;;;;;3.17;0.90;;;7.90;99.90;;;;;;8399606;28;20241;-71
2022/04/09 16:38:54;;;;;;;2.20;1.10;;;7.70;99.90;;;;;;8385935;28;20568;-72
2022/04/09 16:42:55;;;;;;;2.97;1.60;;;7.70;99.90;;;;;;8382233;28;20256;-67
2022/04/09 16:46:57;;;;;;;1.33;1.23;;;7.70;99.90;;;;;;8371231;28;20201;-68
2022/04/09 16:50:58;;;;;;;7.27;3.80;;;7.70;1.00;;;;;;8381265;28;20227;-67
2022/04/09 16:54:59;;;;;;;15.53;8.13;;;7.40;86.30;;;;;;8379260;28;20370;-69
2022/04/09 16:58:59;;;;;;;4.13;2.70;;;7.20;99.90;;;;;;8372680;28;20315;-69
2022/04/09 17:03:02;;;;;;;31.23;14.70;;;7.00;99.90;;;;;;8378060;28;20204;-68
2022/04/09 17:07:04;;;;;;;21.43;8.20;;;6.90;99.90;;;;;;8393458;28;20220;-69
2022/04/09 17:11:11;;;;;;;17.87;9.07;;;6.90;99.90;;;;;;8378171;28;20216;-70
2022/04/09 17:15:12;;;;;;;7.03;4.60;;;7.00;99.90;;;;;;8376610;28;20235;-68
2022/04/09 17:19:13;;;;;;;4.03;2.77;;;7.00;99.90;;;;;;8371319;28;20321;-67
2022/04/09 17:23:14;;;;;;;1.23;0.70;;;7.00;99.90;;;;;;8380709;28;20204;-69
2022/04/09 17:27:16;;;;;;;4.83;0.77;;;6.90;96.20;;;;;;8378837;28;20258;-68
2022/04/09 17:31:17;;;;;;;1.30;0.90;;;6.90;22.90;;;;;;8379116;28;20212;-68
2022/04/09 17:35:18;;;;;;;2.57;0.70;;;6.90;99.90;;;;;;8378138;28;20238;-66
2022/04/09 17:39:19;;;;;;;1.77;0.90;;;6.80;99.90;;;;;;8374138;28;20205;-68
2022/04/09 17:43:20;;;;;;;1.80;0.70;;;6.50;99.90;;;;;;8378910;28;20312;-67
2022/04/09 17:47:22;;;;;;;2.90;0.90;;;6.30;99.90;;;;;;8376337;28;20220;-66
2022/04/09 17:51:22;;;;;;;3.07;0.80;;;6.10;1.00;;;;;;8377325;28;20208;-70
2022/04/09 17:55:23;;;;;;;4.67;0.90;;;5.90;1.00;;;;;;8379299;28;20228;-69
2022/04/09 17:59:24;;;;;;;1.40;0.90;;;5.70;21.70;;;;;;8374717;28;20216;-68
2022/04/09 18:03:25;;;;;;;1.47;0.93;;;5.40;99.90;;;;;;8379346;28;20235;-69
2022/04/09 18:07:26;;;;;;;1.10;1.00;;;5.30;99.90;;;;;;8379041;28;20213;-67
2022/04/09 18:11:27;;;;;;;2.07;1.13;;;5.20;99.90;;;;;;8375821;28;20266;-70
2022/04/09 18:15:28;;;;;;;3.73;1.20;;;5.20;99.90;;;;;;8379204;28;20283;-70
2022/04/09 18:19:28;;;;;;;11.53;5.97;;;5.10;99.90;;;;;;8377481;28;20197;-65
2022/04/09 18:23:29;;;;;;;6.33;3.27;;;4.90;99.90;;;;;;8382603;28;20217;-68
2022/04/09 18:27:32;;;;;;;13.10;6.03;;;4.70;99.90;;;;;;8379064;28;20211;-65
2022/04/09 18:31:33;;;;;;;4.27;1.83;;;4.60;1.00;;;;;;8363878;28;20203;-66
2022/04/09 18:39:47;;;;;;;5.93;2.20;;;4.40;1.00;;;;;;8884543;22;20300;-66
2022/04/09 18:43:48;;;;;;;2.90;1.50;;;4.40;1.00;;;;;;8309395;28;20254;-64
2022/04/09 18:47:48;;;;;;;4.63;2.20;;;4.40;1.00;;;;;;8311156;28;20689;-67
2022/04/09 18:51:50;;;;;;;1.83;1.00;;;4.40;1.00;;;;;;8314019;28;20306;-67
2022/04/09 18:55:52;;;;;;;4.43;1.63;;;4.60;1.00;;;;;;8306841;28;20215;-66
2022/04/09 18:59:53;;;;;;;6.13;2.07;;;4.80;99.90;;;;;;8318772;28;20228;-67
2022/04/09 19:03:53;;;;;;;2.43;1.33;;;4.90;99.90;;;;;;8314689;28;20227;-65
2022/04/09 19:07:54;;;;;;;3.17;0.87;;;5.00;99.90;;;;;;8329670;28;20302;-67
2022/04/09 19:11:55;;;;;;;4.13;1.30;;;5.00;99.90;;;;;;8333586;28;20319;-69
2022/04/09 19:15:56;;;;;;;4.37;1.17;;;4.90;99.90;;;;;;8317342;28;20214;-67
2022/04/09 19:19:59;;;;;;;1.97;1.47;;;4.70;99.90;;;;;;8320992;28;20326;-67
2022/04/09 19:24:01;;;;;;;2.97;1.87;;;4.50;1.00;;;;;;8338956;28;20212;-67
2022/04/09 19:28:03;;;;;;;3.23;1.70;;;4.40;99.90;;;;;;8324295;28;20207;-67
2022/04/09 19:32:06;;;;;;;3.07;1.57;;;4.30;99.90;;;;;;8318652;28;20214;-68
2022/04/09 19:36:07;;;;;;;1.63;1.10;;;4.10;1.00;;;;;;8315018;28;20302;-68
2022/04/09 19:40:08;;;;;;;1.60;1.10;;;3.80;70.80;;;;;;8316079;28;20516;-68
2022/04/09 19:44:09;;;;;;;7.20;3.17;;;3.60;99.90;;;;;;8310320;28;20233;-69
2022/04/09 19:48:10;;;;;;;14.53;7.83;;;3.30;99.90;;;;;;8320071;28;20213;-70
2022/04/09 19:52:11;;;;;;;12.33;6.83;;;3.00;99.90;;;;;;8316106;28;20222;-69
2022/04/09 19:56:11;;;;;;;21.57;12.37;;;2.70;83.20;;;;;;8320592;28;20548;-69
2022/04/09 20:00:16;;;;;;;9.47;6.67;;;2.40;99.90;;;;;;8311954;28;20210;-69
2022/04/09 20:04:19;;;;;;;6.20;5.00;;;2.20;94.40;;;;;;8317495;28;20211;-69
2022/04/09 20:08:20;;;;;;;4.60;3.07;;;2.00;99.90;;;;;;8319073;28;20248;-69
2022/04/09 20:12:22;;;;;;;2.57;0.93;;;1.90;99.90;;;;;;8313768;28;20217;-69
2022/04/09 20:16:28;;;;;;;14.30;7.23;;;1.70;1.00;;;;;;8322812;28;20210;-69
2022/04/09 20:20:30;;;;;;;13.80;5.67;;;1.60;99.90;;;;;;8322512;28;20214;-69
2022/04/09 20:24:31;;;;;;;8.47;3.17;;;1.60;36.90;;;;;;8316751;28;20209;-69
2022/04/09 20:28:32;;;;;;;3.07;1.50;;;1.50;1.00;;;;;;8325480;28;20233;-68
2022/04/09 20:32:33;;;;;;;2.47;1.40;;;1.60;99.90;;;;;;8319127;28;20286;-67
2022/04/09 20:36:35;;;;;;;5.37;4.23;;;1.70;99.90;;;;;;8308729;28;20271;-68
2022/04/09 20:40:36;;;;;;;3.13;2.10;;;1.90;1.00;;;;;;8286910;28;20231;-69
2022/04/09 20:44:37;;;;;;;5.03;3.20;;;2.30;11.40;;;;;;8281347;28;20198;-69
2022/04/09 20:48:38;;;;;;;6.70;3.37;;;2.70;99.90;;;;;;8282567;28;20222;-69
2022/04/09 20:52:39;;;;;;;5.43;2.77;;;3.00;99.90;;;;;;8286737;28;20215;-67
2022/04/09 20:56:51;;;;;;;7.27;4.20;;;3.20;1.00;;;;;;8287065;28;20214;-68
2022/04/09 21:00:53;;;;;;;7.90;3.77;;;3.40;1.00;;;;;;8282898;28;20300;-67
2022/04/09 21:04:53;;;;;;;7.63;4.73;;;3.50;99.90;;;;;;8289474;28;20222;-66
2022/04/09 21:08:54;;;;;;;5.13;3.90;;;3.60;99.90;;;;;;8288946;28;20218;-66
2022/04/09 21:12:55;;;;;;;7.83;4.47;;;3.80;1.00;;;;;;8287823;28;20227;-65
2022/04/09 21:16:56;;;;;;;6.07;3.53;;;3.80;99.90;;;;;;8278050;28;20229;-68
2022/04/09 21:20:57;;;;;;;5.30;3.47;;;3.80;17.90;;;;;;8298713;28;20288;-63
2022/04/09 21:24:58;;;;;;;4.60;2.87;;;3.80;99.90;;;;;;8290030;28;20265;-65
2022/04/09 21:28:59;;;;;;;3.97;2.77;;;3.70;99.90;;;;;;8288519;28;20215;-67